createdAt,value
2019-01-17T00:02:24.533Z,98571.70
2019-01-17T00:04:57.389Z,98580.34
2019-01-17T00:07:28.484Z,98577.47
2019-01-17T00:10:02.227Z,98568.23
2019-01-17T00:12:49.852Z,98560.87
2019-01-17T00:15:23.921Z,98563.60
2019-01-17T00:17:57.390Z,98569.19
2019-01-17T00:20:31.297Z,98561.01
2019-01-17T00:23:14.128Z,98572.39
2019-01-17T00:25:57.251Z,98571.08
2019-01-17T00:28:44.737Z,98573.99
2019-01-17T00:31:15.862Z,98559.45
2019-01-17T00:33:52.760Z,98554.66
2019-01-17T00:36:36.077Z,98562.84
2019-01-17T00:39:09.505Z,98558.58
2019-01-17T00:41:46.230Z,98565.18
2019-01-17T00:44:19.833Z,98559.36
2019-01-17T00:46:50.909Z,98563.78
2019-01-17T00:49:22.331Z,98570.08
2019-01-17T00:51:53.435Z,98562.58
2019-01-17T00:54:43.061Z,98560.63
2019-01-17T00:57:30.713Z,98553.39
2019-01-17T01:00:04.471Z,98549.66
2019-01-17T01:02:38.586Z,98545.14
2019-01-17T01:05:15.701Z,98551.23
2019-01-17T01:08:01.877Z,98548.98
2019-01-17T01:10:32.948Z,98548.24
2019-01-17T01:13:22.364Z,98535.88
2019-01-17T01:16:11.417Z,98548.84
2019-01-17T01:18:58.466Z,98548.04
2019-01-17T01:21:35.824Z,98545.95
2019-01-17T01:24:25.401Z,98541.29
2019-01-17T01:27:11.847Z,98543.87
2019-01-17T01:29:54.580Z,98545.86
2019-01-17T01:32:28.896Z,98535.64
2019-01-17T01:35:00.339Z,98536.70
2019-01-17T01:37:31.865Z,98533.55
2019-01-17T01:40:02.953Z,98536.63
2019-01-17T01:42:34.043Z,98525.69
2019-01-17T01:45:08.491Z,98523.41
2019-01-17T01:47:39.664Z,98517.27
2019-01-17T01:50:25.833Z,98516.20
2019-01-17T01:52:59.592Z,98511.47
2019-01-17T01:55:29.137Z,98511.75
2019-01-17T01:57:58.588Z,98519.47
2019-01-17T02:00:28.088Z,98526.73
2019-01-17T02:02:57.534Z,98532.76
2019-01-17T02:05:27.070Z,98524.47
2019-01-17T02:07:58.162Z,98524.73
2019-01-17T02:10:27.649Z,98525.69
2019-01-17T02:12:58.792Z,98537.77
2019-01-17T02:15:28.553Z,98540.58
2019-01-17T02:17:58.294Z,98543.92
2019-01-17T02:20:27.731Z,98556.06
2019-01-17T02:22:57.204Z,98552.00
2019-01-17T02:25:29.616Z,98546.98
2019-01-17T02:27:59.071Z,98555.65
2019-01-17T02:30:28.618Z,98557.40
2019-01-17T02:32:58.074Z,98555.61
2019-01-17T02:35:27.527Z,98555.23
2019-01-17T02:37:56.971Z,98565.87
2019-01-17T02:40:26.420Z,98557.05
2019-01-17T02:42:55.887Z,98544.81
2019-01-17T02:45:25.419Z,98545.36
2019-01-17T02:47:54.870Z,98545.19
2019-01-17T02:50:24.346Z,98563.96
2019-01-17T02:52:53.812Z,98558.61
2019-01-17T02:55:23.545Z,98556.26
2019-01-17T02:57:52.999Z,98551.19
2019-01-17T03:00:22.944Z,98564.74
2019-01-17T03:02:52.410Z,98565.97
2019-01-17T03:05:21.838Z,98565.42
2019-01-17T03:07:51.595Z,98561.88
2019-01-17T03:10:21.025Z,98570.33
2019-01-17T03:12:50.485Z,98568.84
2019-01-17T03:15:19.936Z,98560.08
2019-01-17T03:17:49.478Z,98558.40
2019-01-17T03:20:18.935Z,98553.28
2019-01-17T03:22:48.731Z,98561.06
2019-01-17T03:25:18.179Z,98553.87
2019-01-17T03:27:52.321Z,98546.59
2019-01-17T03:30:21.779Z,98553.20
2019-01-17T03:32:51.876Z,98551.02
2019-01-17T03:35:21.545Z,98550.98
2019-01-17T03:37:51.070Z,98554.46
2019-01-17T03:40:20.797Z,98554.42
2019-01-17T03:42:50.613Z,98558.67
2019-01-17T03:45:20.141Z,98542.68
2019-01-17T03:47:49.903Z,98545.66
2019-01-17T03:50:19.335Z,98544.65
2019-01-17T03:52:48.797Z,98543.31
2019-01-17T03:55:20.115Z,98542.26
2019-01-17T03:57:49.841Z,98532.69
2019-01-17T04:00:19.852Z,98515.13
2019-01-17T04:02:49.382Z,98525.44
2019-01-17T04:05:18.901Z,98521.14
2019-01-17T04:07:48.644Z,98521.17
2019-01-17T04:10:18.097Z,98517.98
2019-01-17T04:12:47.568Z,98511.31
2019-01-17T04:15:17.043Z,98506.28
2019-01-17T04:17:46.532Z,98497.84
2019-01-17T04:20:17.765Z,98493.85
2019-01-17T04:22:47.223Z,98499.91
2019-01-17T04:25:17.690Z,98503.11
2019-01-17T04:27:48.712Z,98497.65
2019-01-17T04:30:18.440Z,98503.52
2019-01-17T04:32:48.224Z,98499.99
2019-01-17T04:35:17.736Z,98501.32
2019-01-17T04:37:47.226Z,98505.03
2019-01-17T04:40:16.838Z,98495.96
2019-01-17T04:42:46.309Z,98495.73
2019-01-17T04:45:15.756Z,98499.67
2019-01-17T04:47:45.244Z,98492.25
2019-01-17T04:50:15.251Z,98493.58
2019-01-17T04:52:44.724Z,98493.27
2019-01-17T04:55:14.532Z,98494.88
2019-01-17T04:57:44.001Z,98503.89
2019-01-17T05:00:16.656Z,98507.14
2019-01-17T05:02:46.495Z,98512.66
2019-01-17T05:05:16.131Z,98512.34
2019-01-17T05:07:45.783Z,98511.31
2019-01-17T05:10:16.951Z,98518.23
2019-01-17T05:12:46.504Z,98512.06
2019-01-17T05:15:16.084Z,98519.30
2019-01-17T05:17:45.548Z,98516.13
2019-01-17T05:20:15.736Z,98519.29
2019-01-17T05:22:45.439Z,98516.79
2019-01-17T05:25:14.945Z,98522.89
2019-01-17T05:27:44.401Z,98531.18
2019-01-17T05:30:16.103Z,98530.91
2019-01-17T05:32:46.192Z,98528.12
2019-01-17T05:35:15.719Z,98527.43
2019-01-17T05:37:45.269Z,98534.58
2019-01-17T05:40:17.065Z,98530.98
2019-01-17T05:42:46.877Z,98541.34
2019-01-17T05:45:16.735Z,98537.63
2019-01-17T05:47:46.179Z,98531.72
2019-01-17T05:50:18.242Z,98532.85
2019-01-17T05:52:48.187Z,98546.44
2019-01-17T05:55:20.169Z,98538.45
2019-01-17T05:57:49.069Z,98539.22
2019-01-17T06:00:22.621Z,98541.55
2019-01-17T06:02:53.978Z,98544.04
2019-01-17T06:05:23.433Z,98548.34
2019-01-17T06:07:54.497Z,98538.80
2019-01-17T06:10:24.346Z,98548.56
2019-01-17T06:12:54.793Z,98554.28
2019-01-17T06:15:24.419Z,98555.89
2019-01-17T06:17:53.862Z,98549.36
2019-01-17T06:20:23.536Z,98548.77
2019-01-17T06:22:52.983Z,98545.11
2019-01-17T06:25:28.038Z,98553.70
2019-01-17T06:27:53.696Z,98550.97
2019-01-17T06:30:23.169Z,98551.67
2019-01-17T06:32:52.612Z,98548.73
2019-01-17T06:35:22.166Z,98548.41
2019-01-17T06:37:51.613Z,98558.91
2019-01-17T06:40:26.469Z,98550.66
2019-01-17T06:42:56.216Z,98557.30
2019-01-17T06:45:25.678Z,98558.05
2019-01-17T06:47:55.141Z,98564.50
2019-01-17T06:50:24.625Z,98568.73
2019-01-17T06:52:54.137Z,98564.51
2019-01-17T06:55:23.946Z,98567.63
2019-01-17T06:57:53.777Z,98567.04
2019-01-17T07:00:23.311Z,98564.88
2019-01-17T07:02:52.845Z,98566.58
2019-01-17T07:05:22.602Z,98572.40
2019-01-17T07:07:52.044Z,98573.10
2019-01-17T07:10:21.519Z,98576.86
2019-01-17T07:12:51.318Z,98576.34
2019-01-17T07:15:20.760Z,98573.42
2019-01-17T07:17:50.516Z,98584.84
2019-01-17T07:20:19.990Z,98573.89
2019-01-17T07:22:49.738Z,98572.31
2019-01-17T07:25:19.221Z,98575.26
2019-01-17T07:27:48.658Z,98580.58
2019-01-17T07:30:20.767Z,98579.25
2019-01-17T07:32:50.249Z,98583.56
2019-01-17T07:35:19.805Z,98579.25
2019-01-17T07:37:50.265Z,98583.00
2019-01-17T07:40:19.992Z,98582.23
2019-01-17T07:42:49.430Z,98583.63
2019-01-17T07:45:26.651Z,98587.08
2019-01-17T07:47:56.375Z,98595.80
2019-01-17T07:50:25.911Z,98597.17
2019-01-17T07:52:55.361Z,98602.45
2019-01-17T07:55:24.814Z,98593.14
2019-01-17T07:57:54.250Z,98594.66
2019-01-17T08:00:24.393Z,98589.77
2019-01-17T08:02:53.835Z,98599.55
2019-01-17T08:05:23.373Z,98608.86
2019-01-17T08:07:53.092Z,98600.28
2019-01-17T08:10:22.847Z,98605.06
2019-01-17T08:12:52.360Z,98613.36
2019-01-17T08:15:21.815Z,98608.55
2019-01-17T08:17:51.256Z,98608.63
2019-01-17T08:20:22.559Z,98613.33
2019-01-17T08:22:52.729Z,98611.20
2019-01-17T08:25:22.199Z,98620.56
2019-01-17T08:27:51.679Z,98614.15
2019-01-17T08:30:24.434Z,98607.77
2019-01-17T08:32:54.056Z,98619.47
2019-01-17T08:35:23.526Z,98616.57
2019-01-17T08:37:53.355Z,98614.37
2019-01-17T08:40:25.456Z,98622.05
2019-01-17T08:42:55.638Z,98614.02
2019-01-17T08:45:25.100Z,98611.39
2019-01-17T08:47:54.985Z,98623.06
2019-01-17T08:50:24.452Z,98621.69
2019-01-17T08:52:53.891Z,98615.03
2019-01-17T08:55:23.679Z,98627.91
2019-01-17T08:57:53.130Z,98633.16
2019-01-17T09:00:24.995Z,98637.78
2019-01-17T09:02:54.452Z,98635.70
2019-01-17T09:05:23.988Z,98637.66
2019-01-17T09:07:53.680Z,98641.61
2019-01-17T09:10:28.006Z,98644.23
2019-01-17T09:12:57.451Z,98647.64
2019-01-17T09:15:29.411Z,98649.95
2019-01-17T09:17:59.467Z,98646.55
2019-01-17T09:20:29.195Z,98649.20
2019-01-17T09:22:58.650Z,98647.92
2019-01-17T09:25:28.178Z,98649.05
2019-01-17T09:27:57.632Z,98648.31
2019-01-17T09:30:27.079Z,98648.66
2019-01-17T09:32:56.556Z,98647.33
2019-01-17T09:35:26.058Z,98643.89
2019-01-17T09:37:55.511Z,98643.03
2019-01-17T09:40:24.974Z,98642.91
2019-01-17T09:42:54.419Z,98643.97
2019-01-17T09:45:24.240Z,98634.38
2019-01-17T09:47:53.695Z,98637.35
2019-01-17T09:50:25.330Z,98640.02
2019-01-17T09:52:54.945Z,98636.22
2019-01-17T09:55:24.480Z,98640.52
2019-01-17T09:57:53.922Z,98642.20
2019-01-17T10:00:28.127Z,98641.10
2019-01-17T10:02:57.953Z,98633.83
2019-01-17T10:05:28.274Z,98634.14
2019-01-17T10:07:58.105Z,98625.57
2019-01-17T10:10:27.568Z,98629.25
2019-01-17T10:12:57.097Z,98628.66
2019-01-17T10:15:38.982Z,98623.94
2019-01-17T10:18:14.783Z,98621.07
2019-01-17T10:21:22.526Z,98620.56
2019-01-17T10:24:16.578Z,98614.14
2019-01-17T10:26:49.200Z,98616.26
2019-01-17T10:29:38.379Z,98610.16
2019-01-17T10:32:34.614Z,98606.59
2019-01-17T10:35:21.464Z,98608.13
2019-01-17T10:37:54.186Z,98606.20
2019-01-17T10:40:55.158Z,98601.53
2019-01-17T10:43:37.789Z,98592.31
2019-01-17T10:46:22.615Z,98596.77
2019-01-17T10:49:00.761Z,98591.27
2019-01-17T10:51:39.891Z,98585.44
2019-01-17T10:54:18.513Z,98577.13
2019-01-17T10:57:03.085Z,98581.63
2019-01-17T10:59:44.662Z,98574.28
2019-01-17T11:02:35.350Z,98580.06
2019-01-17T11:05:30.889Z,98571.33
2019-01-17T11:08:24.495Z,98568.63
2019-01-17T11:11:14.954Z,98570.59
2019-01-17T11:13:59.409Z,98563.13
2019-01-17T11:16:40.336Z,98565.63
2019-01-17T11:19:18.981Z,98554.00
2019-01-17T11:22:08.491Z,98548.63
2019-01-17T11:25:02.386Z,98553.97
2019-01-17T11:28:08.290Z,98555.64
2019-01-17T11:30:49.500Z,98551.04
2019-01-17T11:33:43.174Z,98554.70
2019-01-17T11:36:24.425Z,98561.52
2019-01-17T11:39:04.061Z,98557.86
2019-01-17T11:41:57.547Z,98549.86
2019-01-17T11:44:48.375Z,98558.04
2019-01-17T11:47:32.596Z,98549.70
2019-01-17T11:50:10.838Z,98544.38
2019-01-17T11:53:04.022Z,98535.41
2019-01-17T11:56:00.740Z,98523.26
2019-01-17T11:58:39.406Z,98520.14
2019-01-17T12:01:45.454Z,98521.25
2019-01-17T12:04:32.557Z,98517.59
2019-01-17T12:07:08.417Z,98526.53
2019-01-17T12:09:38.283Z,98540.48
2019-01-17T12:12:08.101Z,98543.64
2019-01-17T12:14:37.640Z,98530.08
2019-01-17T12:17:07.084Z,98528.40
2019-01-17T12:19:36.577Z,98527.91
2019-01-17T12:22:06.287Z,98525.84
2019-01-17T12:24:35.736Z,98518.31
2019-01-17T12:27:05.267Z,98518.82
2019-01-17T12:29:34.700Z,98512.74
2019-01-17T12:32:04.157Z,98517.91
2019-01-17T12:34:33.627Z,98512.08
2019-01-17T12:37:03.096Z,98511.70
2019-01-17T12:39:32.565Z,98509.61
2019-01-17T12:42:02.036Z,98520.02
2019-01-17T12:44:31.492Z,98504.02
2019-01-17T12:47:00.937Z,98497.72
2019-01-17T12:49:30.398Z,98504.61
2019-01-17T12:51:59.935Z,98495.52
2019-01-17T12:54:29.913Z,98503.27
2019-01-17T12:56:59.416Z,98500.98
2019-01-17T12:59:28.834Z,98485.92
2019-01-17T13:01:58.315Z,98496.13
2019-01-17T13:04:28.026Z,98488.97
2019-01-17T13:06:58.452Z,98483.31
2019-01-17T13:09:27.920Z,98489.81
2019-01-17T13:11:57.697Z,98491.05
2019-01-17T13:14:27.176Z,98482.00
2019-01-17T13:16:57.910Z,98478.25
2019-01-17T13:19:28.241Z,98486.95
2019-01-17T13:21:57.693Z,98485.22
2019-01-17T13:24:27.380Z,98488.38
2019-01-17T13:27:00.706Z,98471.00
2019-01-17T13:29:27.986Z,98470.09
2019-01-17T13:31:57.754Z,98468.58
2019-01-17T13:34:27.198Z,98473.45
2019-01-17T13:36:56.666Z,98467.72
2019-01-17T13:39:26.165Z,98464.92
2019-01-17T13:41:55.849Z,98468.09
2019-01-17T13:44:25.285Z,98471.86
2019-01-17T13:46:55.058Z,98477.73
2019-01-17T13:49:24.495Z,98472.12
2019-01-17T13:51:53.975Z,98476.39
2019-01-17T13:54:23.410Z,98475.79
2019-01-17T13:56:52.879Z,98473.41
2019-01-17T13:59:22.316Z,98461.47
2019-01-17T14:01:51.795Z,98452.63
2019-01-17T14:04:21.600Z,98445.97
2019-01-17T14:06:51.100Z,98443.58
2019-01-17T14:09:20.816Z,98452.67
2019-01-17T14:11:50.270Z,98452.41
2019-01-17T14:14:19.876Z,98463.06
2019-01-17T14:16:49.643Z,98462.23
2019-01-17T14:19:19.379Z,98457.70
2019-01-17T14:21:48.933Z,98468.76
2019-01-17T14:24:18.387Z,98452.63
2019-01-17T14:26:47.942Z,98446.44
2019-01-17T14:29:17.718Z,98449.86
2019-01-17T14:31:47.215Z,98443.19
2019-01-17T14:34:16.676Z,98453.71
2019-01-17T14:36:46.443Z,98452.02
2019-01-17T14:39:16.262Z,98447.28
2019-01-17T14:41:46.568Z,98448.11
2019-01-17T14:44:16.393Z,98447.88
2019-01-17T14:46:46.198Z,98449.16
2019-01-17T14:49:16.179Z,98445.64
2019-01-17T14:51:47.485Z,98439.53
2019-01-17T14:54:16.935Z,98445.06
2019-01-17T14:56:46.378Z,98433.97
2019-01-17T14:59:16.270Z,98428.17
2019-01-17T15:01:45.716Z,98435.12
2019-01-17T15:04:15.183Z,98423.69
2019-01-17T15:06:44.695Z,98421.16
2019-01-17T15:09:14.207Z,98425.73
2019-01-17T15:11:43.814Z,98417.13
2019-01-17T15:14:13.296Z,98425.28
2019-01-17T15:16:42.793Z,98426.75
2019-01-17T15:19:12.244Z,98424.36
2019-01-17T15:21:41.678Z,98426.39
2019-01-17T15:24:11.400Z,98431.16
2019-01-17T15:26:40.837Z,98430.16
2019-01-17T15:29:10.314Z,98425.16
2019-01-17T15:31:40.079Z,98423.11
2019-01-17T15:34:09.577Z,98421.59
2019-01-17T15:36:39.015Z,98425.75
2019-01-17T15:39:09.484Z,98428.55
2019-01-17T15:41:38.927Z,98423.27
2019-01-17T15:44:08.641Z,98419.94
2019-01-17T15:46:38.097Z,98417.83
2019-01-17T15:49:07.613Z,98427.19
2019-01-17T15:51:37.069Z,98424.02
2019-01-17T15:54:06.518Z,98424.57
2019-01-17T15:56:36.056Z,98424.85
2019-01-17T15:59:05.570Z,98435.80
2019-01-17T16:01:35.296Z,98452.17
2019-01-17T16:04:05.068Z,98442.32
2019-01-17T16:06:34.866Z,98437.69
2019-01-17T16:09:06.316Z,98452.50
2019-01-17T16:11:35.774Z,98454.06
2019-01-17T16:14:05.343Z,98454.88
2019-01-17T16:16:34.770Z,98452.33
2019-01-17T16:19:04.234Z,98456.12
2019-01-17T16:21:33.698Z,98452.03
2019-01-17T16:24:03.160Z,98442.32
2019-01-17T16:26:32.593Z,98440.02
2019-01-17T16:29:02.053Z,98437.63
2019-01-17T16:31:31.565Z,98441.23
2019-01-17T16:34:01.059Z,98433.81
2019-01-17T16:36:30.581Z,98416.58
2019-01-17T16:39:00.043Z,98428.27
2019-01-17T16:41:29.628Z,98421.77
2019-01-17T16:43:59.094Z,98425.52
2019-01-17T16:46:28.546Z,98430.92
2019-01-17T16:48:57.984Z,98437.84
2019-01-17T16:51:27.430Z,98436.01
2019-01-17T16:53:56.875Z,98440.58
2019-01-17T16:56:26.946Z,98437.45
2019-01-17T16:58:56.430Z,98438.78
2019-01-17T17:01:26.904Z,98446.48
2019-01-17T17:03:56.990Z,98443.94
2019-01-17T17:06:26.538Z,98448.34
2019-01-17T17:08:56.327Z,98452.06
2019-01-17T17:11:25.764Z,98448.48
2019-01-17T17:13:55.446Z,98448.44
2019-01-17T17:16:24.900Z,98449.88
2019-01-17T17:18:54.645Z,98452.00
2019-01-17T17:21:24.090Z,98452.78
2019-01-17T17:23:53.606Z,98455.44
2019-01-17T17:26:23.379Z,98450.66
2019-01-17T17:28:53.180Z,98447.73
2019-01-17T17:31:22.616Z,98440.94
2019-01-17T17:33:52.069Z,98436.41
2019-01-17T17:36:21.520Z,98442.92
2019-01-17T17:38:50.958Z,98437.26
2019-01-17T17:41:20.466Z,98434.72
2019-01-17T17:43:49.970Z,98428.86
2019-01-17T17:46:19.445Z,98438.94
2019-01-17T17:48:48.865Z,98445.58
2019-01-17T17:51:18.323Z,98431.47
2019-01-17T17:53:48.135Z,98431.78
2019-01-17T17:56:17.748Z,98447.50
2019-01-17T17:58:47.561Z,98448.66
2019-01-17T18:01:19.952Z,98450.55
2019-01-17T18:03:49.920Z,98440.19
2019-01-17T18:06:19.443Z,98444.29
2019-01-17T18:08:48.923Z,98421.11
2019-01-17T18:11:18.357Z,98444.41
2019-01-17T18:13:47.819Z,98439.13
2019-01-17T18:16:17.289Z,98444.67
2019-01-17T18:18:46.739Z,98440.42
2019-01-17T18:21:16.194Z,98447.66
2019-01-17T18:23:45.690Z,98435.69
2019-01-17T18:26:15.185Z,98435.77
2019-01-17T18:28:44.709Z,98435.02
2019-01-17T18:31:14.223Z,98436.74
2019-01-17T18:33:43.680Z,98430.87
2019-01-17T18:36:13.537Z,98437.52
2019-01-17T18:38:43.012Z,98441.52
2019-01-17T18:41:12.459Z,98443.98
2019-01-17T18:43:42.197Z,98448.74
2019-01-17T18:46:11.969Z,98445.54
2019-01-17T18:48:41.426Z,98463.91
2019-01-17T18:51:10.884Z,98472.12
2019-01-17T18:53:40.594Z,98476.93
2019-01-17T18:56:10.060Z,98484.98
2019-01-17T18:58:39.815Z,98499.56
2019-01-17T19:01:09.283Z,98499.29
2019-01-17T19:03:40.660Z,98515.52
2019-01-17T19:06:10.488Z,98531.50
2019-01-17T19:08:40.301Z,98541.33
2019-01-17T19:11:09.940Z,98548.00
2019-01-17T19:13:39.379Z,98566.78
2019-01-17T19:16:09.800Z,98566.08
2019-01-17T19:18:39.262Z,98575.44
2019-01-17T19:21:08.812Z,98587.97
2019-01-17T19:23:38.217Z,98591.48
2019-01-17T19:26:07.681Z,98597.36
2019-01-17T19:28:37.163Z,98610.91
2019-01-17T19:31:06.651Z,98600.60
2019-01-17T19:33:36.112Z,98615.44
2019-01-17T19:36:05.645Z,98621.80
2019-01-17T19:38:36.089Z,98622.13
2019-01-17T19:41:05.542Z,98634.88
2019-01-17T19:43:34.977Z,98637.86
2019-01-17T19:46:04.442Z,98651.69
2019-01-17T19:48:33.875Z,98654.60
2019-01-17T19:51:03.324Z,98657.23
2019-01-17T19:53:32.784Z,98662.54
2019-01-17T19:56:02.243Z,98672.89
2019-01-17T19:58:31.680Z,98681.09
2019-01-17T20:01:02.415Z,98682.69
2019-01-17T20:03:31.936Z,98692.23
2019-01-17T20:06:01.693Z,98691.95
2019-01-17T20:08:31.199Z,98702.55
2019-01-17T20:11:01.002Z,98705.20
2019-01-17T20:13:30.441Z,98721.37
2019-01-17T20:16:00.227Z,98719.51
2019-01-17T20:18:29.760Z,98722.41
2019-01-17T20:20:59.224Z,98725.85
2019-01-17T20:23:28.738Z,98736.72
2019-01-17T20:25:58.208Z,98736.19
2019-01-17T20:28:27.720Z,98741.23
2019-01-17T20:30:57.263Z,98745.45
2019-01-17T20:33:26.720Z,98749.17
2019-01-17T20:35:56.181Z,98757.38
2019-01-17T20:38:25.973Z,98755.52
2019-01-17T20:40:58.244Z,98766.90
2019-01-17T20:43:26.925Z,98775.13
2019-01-17T20:45:56.715Z,98780.17
2019-01-17T20:48:26.279Z,98787.30
2019-01-17T20:50:55.747Z,98785.97
2019-01-17T20:53:25.195Z,98784.65
2019-01-17T20:55:54.690Z,98794.20
2019-01-17T20:58:24.385Z,98802.41
2019-01-17T21:01:06.071Z,98811.42
2019-01-17T21:03:35.553Z,98805.33
2019-01-17T21:06:05.285Z,98813.28
2019-01-17T21:08:35.005Z,98813.78
2019-01-17T21:11:04.463Z,98816.72
2019-01-17T21:13:33.912Z,98824.12
2019-01-17T21:16:03.389Z,98819.87
2019-01-17T21:18:32.906Z,98820.94
2019-01-17T21:21:02.381Z,98820.66
2019-01-17T21:23:31.858Z,98827.81
2019-01-17T21:26:01.423Z,98833.90
2019-01-17T21:28:30.924Z,98826.99
2019-01-17T21:31:00.401Z,98834.67
2019-01-17T21:33:29.906Z,98839.42
2019-01-17T21:35:59.676Z,98834.91
2019-01-17T21:38:29.130Z,98835.69
2019-01-17T21:40:58.577Z,98832.99
2019-01-17T21:43:28.152Z,98834.60
2019-01-17T21:45:57.609Z,98832.48
2019-01-17T21:48:27.204Z,98841.75
2019-01-17T21:50:56.616Z,98838.27
2019-01-17T21:53:26.093Z,98858.10
2019-01-17T21:55:56.026Z,98859.41
2019-01-17T21:58:25.921Z,98863.38
2019-01-17T22:00:55.393Z,98863.91
2019-01-17T22:03:24.837Z,98873.41
2019-01-17T22:05:54.298Z,98865.98
2019-01-17T22:08:24.083Z,98873.09
2019-01-17T22:10:53.549Z,98877.83
2019-01-17T22:13:23.025Z,98875.48
2019-01-17T22:15:52.496Z,98871.77
2019-01-17T22:18:22.299Z,98878.38
2019-01-17T22:20:52.026Z,98884.20
2019-01-17T22:23:21.462Z,98883.42
2019-01-17T22:25:50.923Z,98890.28
2019-01-17T22:28:20.374Z,98892.38
2019-01-17T22:30:49.923Z,98887.60
2019-01-17T22:33:19.446Z,98884.19
2019-01-17T22:35:48.897Z,98886.06
2019-01-17T22:38:18.351Z,98888.97
2019-01-17T22:40:48.258Z,98886.32
2019-01-17T22:43:17.713Z,98892.69
2019-01-17T22:45:47.497Z,98899.83
2019-01-17T22:48:16.969Z,98907.27
2019-01-17T22:50:46.438Z,98908.36
2019-01-17T22:53:16.305Z,98916.61
2019-01-17T22:55:45.808Z,98920.56
2019-01-17T22:58:15.327Z,98922.94
2019-01-17T23:00:51.481Z,98935.89
2019-01-17T23:03:23.825Z,98933.50
2019-01-17T23:05:53.269Z,98927.64
2019-01-17T23:08:22.745Z,98933.44
2019-01-17T23:10:52.194Z,98934.23
2019-01-17T23:13:21.648Z,98931.84
2019-01-17T23:15:51.115Z,98936.58
2019-01-17T23:18:20.563Z,98939.51
2019-01-17T23:20:50.981Z,98938.96
2019-01-17T23:23:20.436Z,98943.70
2019-01-17T23:25:49.886Z,98947.92
2019-01-17T23:28:19.339Z,98950.06
2019-01-17T23:30:50.384Z,98950.56
2019-01-17T23:33:20.618Z,98969.91
2019-01-17T23:35:50.272Z,98959.60
2019-01-17T23:38:19.731Z,98965.95
2019-01-17T23:40:49.209Z,98966.98
2019-01-17T23:43:19.031Z,98966.20
2019-01-17T23:45:48.497Z,98965.63
2019-01-17T23:48:17.954Z,98966.67
2019-01-17T23:50:47.398Z,98969.00
2019-01-17T23:53:17.571Z,98983.22
2019-01-17T23:55:47.486Z,98982.38
2019-01-17T23:58:16.949Z,98987.69
